createdAt,value
2022-12-01T00:00:15.274Z,33.13
2022-12-01T00:02:51.866Z,34.50
2022-12-01T00:05:31.922Z,31.30
2022-12-01T00:08:01.669Z,32.30
2022-12-01T00:10:30.317Z,32.60
2022-12-01T00:13:30.616Z,35.15
2022-12-01T00:16:10.767Z,37.03
2022-12-01T00:18:39.363Z,36.58
2022-12-01T00:21:28.981Z,37.10
2022-12-01T00:24:11.812Z,37.03
2022-12-01T00:26:40.364Z,37.92
2022-12-01T00:29:09.543Z,38.28
2022-12-01T00:31:39.751Z,38.88
2022-12-01T00:34:11.524Z,39.00
2022-12-01T00:36:43.547Z,37.75
2022-12-01T00:39:11.841Z,39.08
2022-12-01T00:41:40.121Z,36.83
2022-12-01T00:44:08.335Z,38.17
2022-12-01T00:46:36.623Z,38.60
2022-12-01T00:49:07.116Z,40.03
2022-12-01T00:51:38.525Z,40.25
2022-12-01T00:54:06.786Z,37.75
2022-12-01T00:56:35.060Z,36.53
2022-12-01T00:59:03.680Z,37.53
2022-12-01T01:01:32.141Z,36.25
2022-12-01T01:04:00.496Z,37.45
2022-12-01T01:06:30.226Z,35.13
2022-12-01T01:08:58.475Z,36.75
2022-12-01T01:11:27.130Z,37.70
2022-12-01T01:13:55.746Z,37.15
2022-12-01T01:16:24.132Z,38.28
2022-12-01T01:18:52.372Z,36.28
2022-12-01T01:21:22.411Z,36.83
2022-12-01T01:23:53.306Z,35.75
2022-12-01T01:26:23.922Z,37.78
2022-12-01T01:28:58.272Z,36.25
2022-12-01T01:31:29.107Z,36.90
2022-12-01T01:33:58.456Z,36.65
2022-12-01T01:36:27.955Z,36.05
2022-12-01T01:38:57.636Z,36.42
2022-12-01T01:41:26.896Z,37.47
2022-12-01T01:43:56.825Z,37.20
2022-12-01T01:46:27.327Z,36.70
2022-12-01T01:49:00.128Z,37.22
2022-12-01T01:51:32.560Z,35.67
2022-12-01T01:54:07.418Z,36.20
2022-12-01T01:56:37.918Z,36.45
2022-12-01T01:59:06.237Z,36.42
2022-12-01T02:01:34.856Z,37.13
2022-12-01T02:04:03.981Z,35.95
2022-12-01T02:06:32.170Z,37.55
2022-12-01T02:09:00.589Z,37.17
2022-12-01T02:11:51.623Z,36.70
2022-12-01T02:14:40.059Z,31.98
2022-12-01T02:17:18.531Z,32.17
2022-12-01T02:20:09.286Z,32.53
2022-12-01T02:22:53.878Z,33.83
2022-12-01T02:25:33.998Z,33.28
2022-12-01T02:28:37.175Z,35.63
2022-12-01T02:31:15.100Z,33.35
2022-12-01T02:33:55.295Z,33.60
2022-12-01T02:36:33.073Z,33.47
2022-12-01T02:39:09.521Z,33.15
2022-12-01T02:41:41.229Z,34.35
2022-12-01T02:44:15.040Z,33.17
2022-12-01T02:46:48.557Z,33.17
2022-12-01T02:49:21.810Z,29.73
2022-12-01T02:51:52.098Z,31.50
2022-12-01T02:54:22.556Z,32.38
2022-12-01T02:56:53.673Z,31.98
2022-12-01T02:59:22.391Z,31.70
2022-12-01T03:02:06.063Z,30.75
2022-12-01T03:04:47.481Z,31.92
2022-12-01T03:07:33.752Z,31.58
2022-12-01T03:10:09.957Z,34.38
2022-12-01T03:12:43.240Z,32.92
2022-12-01T03:15:18.795Z,32.85
2022-12-01T03:17:53.521Z,33.15
2022-12-01T03:20:26.572Z,33.47
2022-12-01T03:23:01.150Z,30.67
2022-12-01T03:25:33.665Z,29.65
2022-12-01T03:28:22.182Z,29.98
2022-12-01T03:30:53.943Z,27.75
2022-12-01T03:33:28.296Z,31.25
2022-12-01T03:36:02.490Z,32.13
2022-12-01T03:38:32.004Z,31.77
2022-12-01T03:41:04.759Z,32.25
2022-12-01T03:43:35.478Z,31.63
2022-12-01T03:46:10.493Z,28.67
2022-12-01T03:48:41.116Z,25.63
2022-12-01T03:51:17.188Z,26.63
2022-12-01T03:53:54.113Z,24.88
2022-12-01T03:56:27.277Z,23.08
2022-12-01T03:58:59.057Z,23.98
2022-12-01T04:01:32.803Z,25.52
2022-12-01T04:04:07.909Z,26.88
2022-12-01T04:06:36.568Z,24.65
2022-12-01T04:09:06.218Z,23.65
2022-12-01T04:11:57.055Z,25.20
2022-12-01T04:14:25.851Z,23.65
2022-12-01T04:16:54.107Z,24.92
2022-12-01T04:19:23.849Z,24.08
2022-12-01T04:21:52.075Z,24.27
2022-12-01T04:24:20.966Z,24.40
2022-12-01T04:26:49.414Z,25.83
2022-12-01T04:29:18.496Z,23.77
2022-12-01T04:31:47.018Z,23.92
2022-12-01T04:34:15.523Z,22.27
2022-12-01T04:36:45.133Z,22.42
2022-12-01T04:39:13.632Z,22.05
2022-12-01T04:41:41.949Z,22.05
2022-12-01T04:44:13.474Z,21.58
2022-12-01T04:46:41.828Z,21.23
2022-12-01T04:49:10.601Z,23.27
2022-12-01T04:51:38.757Z,21.85
2022-12-01T04:54:09.060Z,22.20
2022-12-01T04:56:37.468Z,22.02
2022-12-01T04:59:06.016Z,20.33
2022-12-01T05:01:35.531Z,21.83
2022-12-01T05:04:04.211Z,20.58
2022-12-01T05:06:32.619Z,21.48
2022-12-01T05:09:02.751Z,21.23
2022-12-01T05:11:33.246Z,20.85
2022-12-01T05:14:01.880Z,20.75
2022-12-01T05:16:32.665Z,21.23
2022-12-01T05:19:20.616Z,21.33
2022-12-01T05:21:50.810Z,20.08
2022-12-01T05:24:21.087Z,20.67
2022-12-01T05:26:50.698Z,19.92
2022-12-01T05:29:19.588Z,20.73
2022-12-01T05:31:47.997Z,20.88
2022-12-01T05:34:16.629Z,21.50
2022-12-01T05:36:45.544Z,21.45
2022-12-01T05:39:13.874Z,20.85
2022-12-01T05:41:42.016Z,21.08
2022-12-01T05:44:12.135Z,21.80
2022-12-01T05:46:40.368Z,20.40
2022-12-01T05:49:10.747Z,20.83
2022-12-01T05:51:39.066Z,21.88
2022-12-01T05:54:07.300Z,22.65
2022-12-01T05:56:36.277Z,23.52
2022-12-01T05:59:04.760Z,23.15
2022-12-01T06:01:40.343Z,21.50
2022-12-01T06:04:09.233Z,22.48
2022-12-01T06:06:38.964Z,23.95
2022-12-01T06:09:08.236Z,21.98
2022-12-01T06:11:37.979Z,22.10
2022-12-01T06:14:06.432Z,23.05
2022-12-01T06:16:35.439Z,21.80
2022-12-01T06:19:05.094Z,23.10
2022-12-01T06:21:33.314Z,22.27
2022-12-01T06:24:01.747Z,23.20
2022-12-01T06:26:30.026Z,23.63
2022-12-01T06:28:58.303Z,24.05
2022-12-01T06:31:27.620Z,22.80
2022-12-01T06:33:56.412Z,23.45
2022-12-01T06:36:26.484Z,23.85
2022-12-01T06:38:54.770Z,23.70
2022-12-01T06:41:23.545Z,23.00
2022-12-01T06:43:51.723Z,25.20
2022-12-01T06:46:20.693Z,23.23
2022-12-01T06:48:50.106Z,23.70
2022-12-01T06:51:18.441Z,24.27
2022-12-01T06:53:48.039Z,23.92
2022-12-01T06:56:17.753Z,24.80
2022-12-01T06:58:47.198Z,24.77
2022-12-01T07:01:18.567Z,23.88
2022-12-01T07:03:49.688Z,26.15
2022-12-01T07:06:18.861Z,22.33
2022-12-01T07:08:48.528Z,24.52
2022-12-01T07:11:17.271Z,23.58
2022-12-01T07:13:46.388Z,22.55
2022-12-01T07:16:14.675Z,23.90
2022-12-01T07:18:44.530Z,24.83
2022-12-01T07:21:14.778Z,23.48
2022-12-01T07:23:42.995Z,21.85
2022-12-01T07:26:14.917Z,21.65
2022-12-01T07:28:43.865Z,24.45
2022-12-01T07:31:14.436Z,24.47
2022-12-01T07:33:43.170Z,31.67
2022-12-01T07:36:12.699Z,24.30
2022-12-01T07:38:41.310Z,26.23
2022-12-01T07:41:13.091Z,24.85
2022-12-01T07:43:41.466Z,27.17
2022-12-01T07:46:12.866Z,25.92
2022-12-01T07:48:44.615Z,27.27
2022-12-01T07:51:16.062Z,27.73
2022-12-01T07:53:44.715Z,26.73
2022-12-01T07:56:14.492Z,27.27
2022-12-01T07:58:43.953Z,27.38
2022-12-01T08:01:15.536Z,26.73
2022-12-01T08:03:44.088Z,25.73
2022-12-01T08:06:13.537Z,26.58
2022-12-01T08:08:42.600Z,27.20
2022-12-01T08:11:15.390Z,24.60
2022-12-01T08:13:44.196Z,23.45
2022-12-01T08:16:15.343Z,21.65
2022-12-01T08:18:44.981Z,22.70
2022-12-01T08:21:16.192Z,22.27
2022-12-01T08:23:45.041Z,22.10
2022-12-01T08:26:16.430Z,21.77
2022-12-01T08:28:45.555Z,21.95
2022-12-01T08:31:15.402Z,22.77
2022-12-01T08:33:43.759Z,35.40
2022-12-01T08:36:12.006Z,30.95
2022-12-01T08:38:40.260Z,25.45
2022-12-01T08:41:10.726Z,27.70
2022-12-01T08:43:57.973Z,27.60
2022-12-01T08:46:27.495Z,23.60
2022-12-01T08:48:57.745Z,25.98
2022-12-01T08:51:27.424Z,26.60
2022-12-01T08:53:57.517Z,28.35
2022-12-01T08:56:28.611Z,26.38
2022-12-01T08:58:59.085Z,25.27
2022-12-01T09:01:27.669Z,22.88
2022-12-01T09:04:07.761Z,28.02
2022-12-01T09:06:39.687Z,26.85
2022-12-01T09:09:08.522Z,25.05
2022-12-01T09:11:36.785Z,21.92
2022-12-01T09:14:06.688Z,23.98
2022-12-01T09:16:34.977Z,24.38
2022-12-01T09:19:03.434Z,21.10
2022-12-01T09:21:33.272Z,23.42
2022-12-01T09:24:02.197Z,21.52
2022-12-01T09:26:30.791Z,20.40
2022-12-01T09:29:03.239Z,23.10
2022-12-01T09:31:33.610Z,22.77
2022-12-01T09:34:04.507Z,22.98
2022-12-01T09:36:34.088Z,20.83
2022-12-01T09:39:02.922Z,21.85
2022-12-01T09:41:34.467Z,19.08
2022-12-01T09:44:13.950Z,19.67
2022-12-01T09:46:48.254Z,20.33
2022-12-01T09:49:22.856Z,19.10
2022-12-01T09:51:51.793Z,17.33
2022-12-01T09:54:20.619Z,16.77
2022-12-01T09:56:53.277Z,18.83
2022-12-01T09:59:23.799Z,16.35
2022-12-01T10:01:59.431Z,14.63
2022-12-01T10:04:32.522Z,13.68
2022-12-01T10:07:04.104Z,14.23
2022-12-01T10:09:39.167Z,12.88
2022-12-01T10:12:15.388Z,13.57
2022-12-01T10:14:46.166Z,15.10
2022-12-01T10:17:27.681Z,13.75
2022-12-01T10:20:02.272Z,14.95
2022-12-01T10:23:00.729Z,14.98
2022-12-01T10:25:35.729Z,13.57
2022-12-01T10:28:18.858Z,12.27
2022-12-01T10:30:50.999Z,13.10
2022-12-01T10:33:25.250Z,14.13
2022-12-01T10:35:54.164Z,13.00
2022-12-01T10:38:27.483Z,12.40
2022-12-01T10:40:58.110Z,13.60
2022-12-01T10:43:39.930Z,11.95
2022-12-01T10:46:20.562Z,12.63
2022-12-01T10:48:56.522Z,12.00
2022-12-01T10:51:26.317Z,11.55
2022-12-01T10:54:00.317Z,12.63
2022-12-01T10:56:29.147Z,15.90
2022-12-01T10:59:00.858Z,13.93
2022-12-01T11:01:32.077Z,14.18
2022-12-01T11:04:06.986Z,14.77
2022-12-01T11:06:36.590Z,12.75
2022-12-01T11:09:07.573Z,14.23
2022-12-01T11:11:38.042Z,14.75
2022-12-01T11:14:17.877Z,14.40
2022-12-01T11:16:47.835Z,15.02
2022-12-01T11:19:29.150Z,16.58
2022-12-01T11:21:59.346Z,16.48
2022-12-01T11:24:42.982Z,14.40
2022-12-01T11:27:18.397Z,15.95
2022-12-01T11:29:50.002Z,17.23
2022-12-01T11:32:23.052Z,15.45
2022-12-01T11:34:56.592Z,18.60
2022-12-01T11:37:29.053Z,19.92
2022-12-01T11:40:19.066Z,18.92
2022-12-01T11:42:51.723Z,20.40
2022-12-01T11:45:32.316Z,19.63
2022-12-01T11:48:07.430Z,19.00
2022-12-01T11:50:38.905Z,18.92
2022-12-01T11:53:27.743Z,20.27
2022-12-01T11:56:16.130Z,18.38
2022-12-01T11:58:44.711Z,20.60
2022-12-01T12:01:24.107Z,20.55
2022-12-01T12:04:01.473Z,21.30
2022-12-01T12:06:40.322Z,23.02
2022-12-01T12:09:25.917Z,16.73
2022-12-01T12:12:02.965Z,22.10
2022-12-01T12:14:51.381Z,19.05
2022-12-01T12:17:35.124Z,17.98
2022-12-01T12:20:24.704Z,18.27
2022-12-01T12:23:06.506Z,17.45
2022-12-01T12:25:52.197Z,18.30
2022-12-01T12:28:34.817Z,18.35
2022-12-01T12:31:21.317Z,18.50
2022-12-01T12:34:13.558Z,16.73
2022-12-01T12:36:50.339Z,18.85
2022-12-01T12:39:36.019Z,18.85
2022-12-01T12:42:10.583Z,16.73
2022-12-01T12:44:49.771Z,19.17
2022-12-01T12:47:36.091Z,19.05
2022-12-01T12:50:15.544Z,16.80
2022-12-01T12:52:47.362Z,17.92
2022-12-01T12:55:23.912Z,17.20
2022-12-01T12:57:58.858Z,17.75
2022-12-01T13:00:29.198Z,17.33
2022-12-01T13:03:00.611Z,17.88
2022-12-01T13:05:36.246Z,19.58
2022-12-01T13:08:10.246Z,20.98
2022-12-01T13:10:45.680Z,20.63
2022-12-01T13:13:24.431Z,22.80
2022-12-01T13:15:55.687Z,18.45
2022-12-01T13:18:33.863Z,20.60
2022-12-01T13:21:05.088Z,19.08
2022-12-01T13:23:34.843Z,17.17
2022-12-01T13:26:09.540Z,18.83
2022-12-01T13:28:41.992Z,18.63
2022-12-01T13:31:13.516Z,18.13
2022-12-01T13:33:54.874Z,19.40
2022-12-01T13:36:45.760Z,19.70
2022-12-01T13:39:19.670Z,20.52
2022-12-01T13:41:59.778Z,20.85
2022-12-01T13:44:31.250Z,19.13
2022-12-01T13:47:03.701Z,18.95
2022-12-01T13:49:42.012Z,19.10
2022-12-01T13:52:33.977Z,21.83
2022-12-01T13:55:18.917Z,21.50
2022-12-01T13:58:13.244Z,21.00
2022-12-01T14:00:43.491Z,20.23
2022-12-01T14:03:42.458Z,19.95
2022-12-01T14:06:26.015Z,18.33
2022-12-01T14:08:59.019Z,21.55
2022-12-01T14:11:29.453Z,22.55
2022-12-01T14:14:01.678Z,20.17
2022-12-01T14:16:50.159Z,19.58
2022-12-01T14:19:35.560Z,19.50
2022-12-01T14:22:05.362Z,20.30
2022-12-01T14:24:38.390Z,22.73
2022-12-01T14:27:08.032Z,21.67
2022-12-01T14:29:43.440Z,20.30
2022-12-01T14:32:24.511Z,21.23
2022-12-01T14:35:11.424Z,21.15
2022-12-01T14:37:50.042Z,20.25
2022-12-01T14:40:29.701Z,21.08
2022-12-01T14:43:17.520Z,20.52
2022-12-01T14:45:58.561Z,20.13
2022-12-01T14:48:42.124Z,20.63
2022-12-01T14:51:25.059Z,19.55
2022-12-01T14:53:55.994Z,20.92
2022-12-01T14:56:26.849Z,21.98
2022-12-01T14:59:00.360Z,21.38
2022-12-01T15:01:36.068Z,20.15
2022-12-01T15:04:06.998Z,19.85
2022-12-01T15:06:37.336Z,19.23
2022-12-01T15:12:04.000Z,20.55
2022-12-01T15:14:35.614Z,20.30
2022-12-01T15:17:06.922Z,21.98
2022-12-01T15:19:37.920Z,22.38
2022-12-01T15:22:12.506Z,23.08
2022-12-01T15:24:41.372Z,21.25
2022-12-01T15:27:28.996Z,22.65
2022-12-01T15:30:04.362Z,22.10
2022-12-01T15:32:39.024Z,22.00
2022-12-01T15:35:22.532Z,21.17
2022-12-01T15:37:53.487Z,23.20
2022-12-01T15:43:17.790Z,23.48
2022-12-01T15:45:57.025Z,21.75
2022-12-01T15:48:32.409Z,22.80
2022-12-01T15:51:09.692Z,21.52
2022-12-01T15:53:40.350Z,22.00
2022-12-01T15:56:12.223Z,22.17
2022-12-01T15:58:47.215Z,22.13
2022-12-01T16:01:18.595Z,23.23
2022-12-01T16:03:55.101Z,21.65
2022-12-01T16:06:25.943Z,23.52
2022-12-01T16:08:59.240Z,23.67
2022-12-01T16:11:28.937Z,22.67
2022-12-01T16:14:04.407Z,22.98
2022-12-01T16:16:42.821Z,22.40
2022-12-01T16:19:29.061Z,24.63
2022-12-01T16:22:02.610Z,22.75
2022-12-01T16:24:33.777Z,22.85
2022-12-01T16:27:05.236Z,22.65
2022-12-01T16:29:49.900Z,22.85
2022-12-01T16:32:21.979Z,24.65
2022-12-01T16:34:53.629Z,22.77
2022-12-01T16:37:22.679Z,23.70
2022-12-01T16:39:51.798Z,25.08
2022-12-01T16:42:21.706Z,25.63
2022-12-01T16:44:52.315Z,23.92
2022-12-01T16:47:23.991Z,23.52
2022-12-01T16:49:54.259Z,24.17
2022-12-01T16:52:43.698Z,25.20
2022-12-01T16:55:31.983Z,25.77
2022-12-01T16:58:00.581Z,23.25
2022-12-01T17:00:29.682Z,26.70
2022-12-01T17:02:58.786Z,24.08
2022-12-01T17:05:40.188Z,24.98
2022-12-01T17:08:09.175Z,27.15
2022-12-01T17:10:41.044Z,26.17
2022-12-01T17:13:09.533Z,25.50
2022-12-01T17:15:42.381Z,24.95
2022-12-01T17:18:11.000Z,27.67
2022-12-01T17:20:40.859Z,29.27
2022-12-01T17:23:09.912Z,27.10
2022-12-01T17:25:41.848Z,27.75
2022-12-01T17:28:10.589Z,28.77
2022-12-01T17:30:38.974Z,29.13
2022-12-01T17:33:08.072Z,27.63
2022-12-01T17:35:37.937Z,27.52
2022-12-01T17:38:08.012Z,27.67
2022-12-01T17:40:36.637Z,28.00
2022-12-01T17:43:04.975Z,26.33
2022-12-01T17:45:33.852Z,26.92
2022-12-01T17:48:02.076Z,27.45
2022-12-01T17:50:30.311Z,26.30
2022-12-01T17:52:58.479Z,29.00
2022-12-01T17:55:28.317Z,30.13
2022-12-01T17:57:58.766Z,25.50
2022-12-01T18:00:27.160Z,28.75
2022-12-01T18:02:55.703Z,27.65
2022-12-01T18:05:24.854Z,27.55
2022-12-01T18:07:53.255Z,28.30
2022-12-01T18:10:21.654Z,25.85
2022-12-01T18:12:51.344Z,26.88
2022-12-01T18:15:20.441Z,27.45
2022-12-01T18:17:48.942Z,26.85
2022-12-01T18:20:18.090Z,26.95
2022-12-01T18:22:47.032Z,28.08
2022-12-01T18:25:16.271Z,27.15
2022-12-01T18:27:44.480Z,24.52
2022-12-01T18:30:15.588Z,30.08
2022-12-01T18:32:44.780Z,32.88
2022-12-01T18:35:13.038Z,32.97
2022-12-01T18:37:41.441Z,32.60
2022-12-01T18:40:10.913Z,30.38
2022-12-01T18:42:39.172Z,26.30
2022-12-01T18:45:08.477Z,28.05
2022-12-01T18:47:38.107Z,30.20
2022-12-01T18:50:07.628Z,26.40
2022-12-01T18:52:37.066Z,26.00
2022-12-01T18:55:05.547Z,25.05
2022-12-01T18:57:34.497Z,22.45
2022-12-01T19:00:04.492Z,24.48
2022-12-01T19:02:32.974Z,25.63
2022-12-01T19:05:02.673Z,24.17
2022-12-01T19:07:31.511Z,26.08
2022-12-01T19:09:59.857Z,24.60
2022-12-01T19:12:28.193Z,25.10
2022-12-01T19:14:56.974Z,24.60
2022-12-01T19:17:25.367Z,24.58
2022-12-01T19:19:53.545Z,23.60
2022-12-01T19:22:23.681Z,22.17
2022-12-01T19:24:52.569Z,23.40
2022-12-01T19:27:21.685Z,22.65
2022-12-01T19:29:52.187Z,22.77
2022-12-01T19:32:34.770Z,24.67
2022-12-01T19:35:04.605Z,24.55
2022-12-01T19:37:34.310Z,23.63
2022-12-01T19:40:02.833Z,22.08
2022-12-01T19:42:31.072Z,21.50
2022-12-01T19:45:03.646Z,24.13
2022-12-01T19:47:33.217Z,21.67
2022-12-01T19:50:01.532Z,21.98
2022-12-01T19:52:31.379Z,22.13
2022-12-01T19:55:01.484Z,19.57
2022-12-01T19:57:30.650Z,19.57
2022-12-01T19:59:59.930Z,19.83
2022-12-01T20:02:29.517Z,21.17
2022-12-01T20:04:58.523Z,20.40
2022-12-01T20:07:30.229Z,20.35
2022-12-01T20:10:04.498Z,21.37
2022-12-01T20:12:36.019Z,21.80
2022-12-01T20:15:08.655Z,19.08
2022-12-01T20:17:43.529Z,18.88
2022-12-01T20:20:21.421Z,19.83
2022-12-01T20:22:55.333Z,18.50
2022-12-01T20:25:25.187Z,19.10
2022-12-01T20:27:58.184Z,19.60
2022-12-01T20:30:27.286Z,18.57
2022-12-01T20:33:02.698Z,18.80
2022-12-01T20:35:40.882Z,18.58
2022-12-01T20:38:13.451Z,19.67
2022-12-01T20:40:50.607Z,20.27
2022-12-01T20:43:19.253Z,19.83
2022-12-01T20:45:47.897Z,19.50
2022-12-01T20:48:17.275Z,19.40
2022-12-01T20:50:45.796Z,18.57
2022-12-01T20:53:14.648Z,18.90
2022-12-01T20:55:44.780Z,19.17
2022-12-01T20:58:13.439Z,18.23
2022-12-01T21:00:45.773Z,17.30
2022-12-01T21:03:26.270Z,18.98
2022-12-01T21:05:54.632Z,19.33
2022-12-01T21:08:22.981Z,20.58
2022-12-01T21:10:53.100Z,19.23
2022-12-01T21:13:42.381Z,19.67
2022-12-01T21:16:17.945Z,20.17
2022-12-01T21:18:51.907Z,19.42
2022-12-01T21:21:26.522Z,21.30
2022-12-01T21:24:14.537Z,19.93
2022-12-01T21:26:48.293Z,21.80
2022-12-01T21:29:22.379Z,22.25
2022-12-01T21:31:53.286Z,25.73
2022-12-01T21:34:24.631Z,26.13
2022-12-01T21:36:55.552Z,19.27
2022-12-01T21:39:32.757Z,16.97
2022-12-01T21:42:16.550Z,18.13
2022-12-01T21:44:45.616Z,16.87
2022-12-01T21:47:21.528Z,17.25
2022-12-01T21:50:15.237Z,16.37
2022-12-01T21:52:48.018Z,15.87
2022-12-01T21:55:37.039Z,14.98
2022-12-01T21:58:24.375Z,16.23
2022-12-01T22:00:53.611Z,14.57
2022-12-01T22:03:32.035Z,14.37
2022-12-01T22:06:28.907Z,18.93
2022-12-01T22:08:59.516Z,14.30
2022-12-01T22:11:29.301Z,13.93
2022-12-01T22:14:10.656Z,14.15
2022-12-01T22:16:42.976Z,14.27
2022-12-01T22:19:26.112Z,15.07
2022-12-01T22:22:00.548Z,15.48
2022-12-01T22:24:33.722Z,13.57
2022-12-01T22:27:15.546Z,14.27
2022-12-01T22:29:47.563Z,13.80
2022-12-01T22:32:38.296Z,13.53
2022-12-01T22:35:37.492Z,13.73
2022-12-01T22:38:33.490Z,13.27
2022-12-01T22:41:05.512Z,13.10
2022-12-01T22:43:46.008Z,13.90
2022-12-01T22:46:35.244Z,12.50
2022-12-01T22:49:19.301Z,13.88
2022-12-01T22:51:49.805Z,13.80
2022-12-01T22:54:30.955Z,13.90
2022-12-01T22:57:14.728Z,13.30
2022-12-01T22:59:44.964Z,13.03
2022-12-01T23:02:23.870Z,13.70
2022-12-01T23:04:56.783Z,13.80
2022-12-01T23:07:33.805Z,13.73
2022-12-01T23:10:09.068Z,12.70
2022-12-01T23:12:37.889Z,13.57
2022-12-01T23:15:22.249Z,14.33
2022-12-01T23:17:52.285Z,13.15
2022-12-01T23:20:32.857Z,14.00
2022-12-01T23:23:03.788Z,14.43
2022-12-01T23:25:35.030Z,14.90
2022-12-01T23:28:06.674Z,15.50
2022-12-01T23:30:37.099Z,14.60
2022-12-01T23:33:19.372Z,16.07
2022-12-01T23:35:52.931Z,17.27
2022-12-01T23:38:23.286Z,15.15
2022-12-01T23:40:53.589Z,14.70
2022-12-01T23:43:24.296Z,16.33
2022-12-01T23:46:02.142Z,16.38
2022-12-01T23:48:35.776Z,16.58
2022-12-01T23:51:05.595Z,15.95
2022-12-01T23:53:34.734Z,16.77
2022-12-01T23:56:08.291Z,18.47
2022-12-01T23:58:36.875Z,16.20
